sensor_id;sensor_type;location;lat;lon;timestamp;pressure;altitude;pressure_sealevel;temperature;humidity
73453;BME280;61687;56.232;43.854;2023-05-20T00:00:46;101374.91;;;11.64;81.80
73453;BME280;61687;56.232;43.854;2023-05-20T00:03:18;101372.44;;;11.59;82.10
73453;BME280;61687;56.232;43.854;2023-05-20T00:05:45;101363.13;;;11.64;81.92
73453;BME280;61687;56.232;43.854;2023-05-20T00:08:11;101368.72;;;11.67;81.78
73453;BME280;61687;56.232;43.854;2023-05-20T00:10:38;101362.69;;;11.62;81.85
73453;BME280;61687;56.232;43.854;2023-05-20T00:13:04;101362.97;;;11.72;81.58
73453;BME280;61687;56.232;43.854;2023-05-20T00:15:32;101362.28;;;11.76;81.55
73453;BME280;61687;56.232;43.854;2023-05-20T00:18:00;101368.22;;;11.78;81.67
73453;BME280;61687;56.232;43.854;2023-05-20T00:20:26;101368.47;;;11.72;81.85
73453;BME280;61687;56.232;43.854;2023-05-20T00:22:52;101364.50;;;11.70;81.91
73453;BME280;61687;56.232;43.854;2023-05-20T00:25:18;101359.09;;;11.73;81.85
73453;BME280;61687;56.232;43.854;2023-05-20T00:27:44;101364.78;;;11.81;81.72
73453;BME280;61687;56.232;43.854;2023-05-20T00:30:11;101359.50;;;11.88;81.39
73453;BME280;61687;56.232;43.854;2023-05-20T00:32:37;101355.34;;;11.94;81.31
73453;BME280;61687;56.232;43.854;2023-05-20T00:35:03;101360.84;;;11.94;81.41
73453;BME280;61687;56.232;43.854;2023-05-20T00:37:32;101358.31;;;12.01;81.35
73453;BME280;61687;56.232;43.854;2023-05-20T00:39:58;101358.63;;;12.00;81.35
73453;BME280;61687;56.232;43.854;2023-05-20T00:42:26;101359.56;;;12.04;81.34
73453;BME280;61687;56.232;43.854;2023-05-20T00:44:54;101358.94;;;12.11;81.23
73453;BME280;61687;56.232;43.854;2023-05-20T00:47:32;101358.78;;;12.20;80.97
73453;BME280;61687;56.232;43.854;2023-05-20T00:49:59;101359.34;;;12.25;80.95
73453;BME280;61687;56.232;43.854;2023-05-20T00:52:27;101359.78;;;12.27;80.60
73453;BME280;61687;56.232;43.854;2023-05-20T00:54:55;101358.44;;;12.21;80.56
73453;BME280;61687;56.232;43.854;2023-05-20T00:57:22;101358.25;;;12.14;81.09
73453;BME280;61687;56.232;43.854;2023-05-20T00:59:48;101356.47;;;12.06;81.22
73453;BME280;61687;56.232;43.854;2023-05-20T01:02:14;101351.03;;;12.09;80.88
73453;BME280;61687;56.232;43.854;2023-05-20T01:04:40;101354.63;;;11.97;81.30
73453;BME280;61687;56.232;43.854;2023-05-20T01:07:14;101353.03;;;11.96;81.28
73453;BME280;61687;56.232;43.854;2023-05-20T01:09:41;101340.25;;;11.88;81.57
73453;BME280;61687;56.232;43.854;2023-05-20T01:14:47;101343.91;;;11.92;81.34
73453;BME280;61687;56.232;43.854;2023-05-20T01:17:15;101349.28;;;12.01;81.23
73453;BME280;61687;56.232;43.854;2023-05-20T01:19:47;101351.25;;;11.88;81.37
73453;BME280;61687;56.232;43.854;2023-05-20T01:22:14;101349.91;;;11.82;81.58
73453;BME280;61687;56.232;43.854;2023-05-20T01:24:45;101346.25;;;11.78;81.54
73453;BME280;61687;56.232;43.854;2023-05-20T01:27:14;101341.38;;;11.71;81.83
73453;BME280;61687;56.232;43.854;2023-05-20T01:29:42;101343.63;;;11.81;81.50
73453;BME280;61687;56.232;43.854;2023-05-20T01:32:11;101345.16;;;11.95;81.25
73453;BME280;61687;56.232;43.854;2023-05-20T01:34:40;101348.56;;;12.04;81.11
73453;BME280;61687;56.232;43.854;2023-05-20T01:37:07;101347.50;;;12.09;80.88
73453;BME280;61687;56.232;43.854;2023-05-20T01:39:35;101349.13;;;11.97;81.31
73453;BME280;61687;56.232;43.854;2023-05-20T01:42:03;101351.69;;;12.02;81.04
73453;BME280;61687;56.232;43.854;2023-05-20T01:44:30;101354.44;;;11.90;80.78
73453;BME280;61687;56.232;43.854;2023-05-20T01:46:58;101351.25;;;11.88;80.78
73453;BME280;61687;56.232;43.854;2023-05-20T01:49:25;101359.94;;;11.90;80.79
73453;BME280;61687;56.232;43.854;2023-05-20T01:51:51;101356.91;;;11.79;81.29
73453;BME280;61687;56.232;43.854;2023-05-20T01:54:17;101354.50;;;11.78;81.41
73453;BME280;61687;56.232;43.854;2023-05-20T01:56:45;101359.06;;;11.86;80.91
73453;BME280;61687;56.232;43.854;2023-05-20T01:59:11;101349.00;;;11.78;80.76
73453;BME280;61687;56.232;43.854;2023-05-20T02:01:38;101351.91;;;11.69;80.93
73453;BME280;61687;56.232;43.854;2023-05-20T02:04:04;101362.66;;;11.74;80.79
73453;BME280;61687;56.232;43.854;2023-05-20T02:06:30;101357.03;;;11.70;80.88
73453;BME280;61687;56.232;43.854;2023-05-20T02:08:56;101356.78;;;11.76;81.07
73453;BME280;61687;56.232;43.854;2023-05-20T02:11:22;101364.66;;;11.90;80.63
73453;BME280;61687;56.232;43.854;2023-05-20T02:13:49;101363.66;;;11.82;80.90
73453;BME280;61687;56.232;43.854;2023-05-20T02:16:17;101355.41;;;11.82;81.00
73453;BME280;61687;56.232;43.854;2023-05-20T02:18:43;101357.16;;;11.74;81.01
73453;BME280;61687;56.232;43.854;2023-05-20T02:21:15;101362.34;;;11.63;80.95
73453;BME280;61687;56.232;43.854;2023-05-20T02:23:41;101358.16;;;11.82;80.64
73453;BME280;61687;56.232;43.854;2023-05-20T02:26:07;101361.19;;;11.93;80.48
73453;BME280;61687;56.232;43.854;2023-05-20T02:28:36;101366.69;;;11.93;80.00
73453;BME280;61687;56.232;43.854;2023-05-20T02:31:05;101361.91;;;11.90;80.02
73453;BME280;61687;56.232;43.854;2023-05-20T02:33:31;101363.81;;;12.01;80.23
73453;BME280;61687;56.232;43.854;2023-05-20T02:36:00;101369.84;;;12.07;79.91
73453;BME280;61687;56.232;43.854;2023-05-20T02:38:26;101363.00;;;12.01;79.80
73453;BME280;61687;56.232;43.854;2023-05-20T02:40:52;101367.00;;;12.04;80.10
73453;BME280;61687;56.232;43.854;2023-05-20T02:43:18;101368.16;;;12.02;80.01
73453;BME280;61687;56.232;43.854;2023-05-20T02:45:44;101370.53;;;12.04;80.19
73453;BME280;61687;56.232;43.854;2023-05-20T02:48:10;101364.44;;;12.11;79.88
73453;BME280;61687;56.232;43.854;2023-05-20T02:50:37;101368.34;;;12.10;79.43
73453;BME280;61687;56.232;43.854;2023-05-20T02:53:05;101362.03;;;12.09;79.45
73453;BME280;61687;56.232;43.854;2023-05-20T02:55:33;101358.34;;;11.89;79.48
73453;BME280;61687;56.232;43.854;2023-05-20T02:58:00;101363.25;;;11.96;79.54
73453;BME280;61687;56.232;43.854;2023-05-20T03:00:26;101365.00;;;11.88;79.98
73453;BME280;61687;56.232;43.854;2023-05-20T03:02:55;101366.31;;;11.94;79.57
73453;BME280;61687;56.232;43.854;2023-05-20T03:05:23;101370.44;;;12.00;79.37
73453;BME280;61687;56.232;43.854;2023-05-20T03:07:49;101373.94;;;11.85;79.82
73453;BME280;61687;56.232;43.854;2023-05-20T03:10:15;101373.41;;;11.95;79.63
73453;BME280;61687;56.232;43.854;2023-05-20T03:12:41;101375.13;;;12.00;79.63
73453;BME280;61687;56.232;43.854;2023-05-20T03:15:08;101369.78;;;11.91;79.59
73453;BME280;61687;56.232;43.854;2023-05-20T03:17:36;101371.44;;;11.80;79.91
73453;BME280;61687;56.232;43.854;2023-05-20T03:20:02;101368.91;;;11.74;80.09
73453;BME280;61687;56.232;43.854;2023-05-20T03:22:32;101368.47;;;11.72;80.23
73453;BME280;61687;56.232;43.854;2023-05-20T03:24:57;101372.19;;;11.64;80.36
73453;BME280;61687;56.232;43.854;2023-05-20T03:27:25;101375.13;;;11.71;80.46
73453;BME280;61687;56.232;43.854;2023-05-20T03:29:51;101375.72;;;11.65;80.27
73453;BME280;61687;56.232;43.854;2023-05-20T03:32:20;101369.44;;;11.64;80.36
73453;BME280;61687;56.232;43.854;2023-05-20T03:34:46;101372.75;;;11.57;80.26
73453;BME280;61687;56.232;43.854;2023-05-20T03:37:12;101373.03;;;11.81;79.96
73453;BME280;61687;56.232;43.854;2023-05-20T03:39:38;101369.78;;;11.91;79.57
73453;BME280;61687;56.232;43.854;2023-05-20T03:42:05;101370.66;;;12.08;79.11
73453;BME280;61687;56.232;43.854;2023-05-20T03:44:31;101376.69;;;12.13;78.56
73453;BME280;61687;56.232;43.854;2023-05-20T03:46:57;101377.13;;;12.15;78.20
73453;BME280;61687;56.232;43.854;2023-05-20T03:49:23;101369.84;;;12.07;78.26
73453;BME280;61687;56.232;43.854;2023-05-20T03:51:50;101370.13;;;12.18;78.48
73453;BME280;61687;56.232;43.854;2023-05-20T03:54:16;101373.78;;;12.22;77.91
73453;BME280;61687;56.232;43.854;2023-05-20T03:56:46;101372.09;;;12.50;77.55
73453;BME280;61687;56.232;43.854;2023-05-20T03:59:14;101369.53;;;12.57;76.99
73453;BME280;61687;56.232;43.854;2023-05-20T04:01:40;101374.06;;;12.49;77.03
73453;BME280;61687;56.232;43.854;2023-05-20T04:04:06;101371.22;;;12.45;77.14
73453;BME280;61687;56.232;43.854;2023-05-20T04:06:32;101371.31;;;12.65;76.88
73453;BME280;61687;56.232;43.854;2023-05-20T04:08:59;101375.03;;;12.73;76.09
73453;BME280;61687;56.232;43.854;2023-05-20T04:11:25;101371.13;;;12.74;75.87
73453;BME280;61687;56.232;43.854;2023-05-20T04:13:51;101379.00;;;12.92;76.04
73453;BME280;61687;56.232;43.854;2023-05-20T04:16:18;101379.34;;;13.06;75.32
73453;BME280;61687;56.232;43.854;2023-05-20T04:18:44;101375.31;;;13.20;75.18
73453;BME280;61687;56.232;43.854;2023-05-20T04:21:11;101375.97;;;13.32;74.88
73453;BME280;61687;56.232;43.854;2023-05-20T04:23:37;101371.97;;;13.46;74.17
73453;BME280;61687;56.232;43.854;2023-05-20T04:26:03;101374.63;;;13.42;73.51
73453;BME280;61687;56.232;43.854;2023-05-20T04:28:31;101377.09;;;13.28;74.15
73453;BME280;61687;56.232;43.854;2023-05-20T04:31:01;101373.72;;;13.19;74.49
73453;BME280;61687;56.232;43.854;2023-05-20T04:33:31;101374.03;;;13.33;74.63
73453;BME280;61687;56.232;43.854;2023-05-20T04:35:58;101373.66;;;13.35;74.27
73453;BME280;61687;56.232;43.854;2023-05-20T04:38:25;101371.56;;;13.28;73.97
73453;BME280;61687;56.232;43.854;2023-05-20T04:40:55;101376.66;;;13.10;74.25
73453;BME280;61687;56.232;43.854;2023-05-20T04:43:25;101371.59;;;13.12;74.14
73453;BME280;61687;56.232;43.854;2023-05-20T04:45:58;101377.78;;;13.25;74.22
73453;BME280;61687;56.232;43.854;2023-05-20T04:48:26;101369.66;;;13.12;73.86
73453;BME280;61687;56.232;43.854;2023-05-20T04:50:52;101372.34;;;12.93;74.22
73453;BME280;61687;56.232;43.854;2023-05-20T04:53:19;101376.94;;;13.05;74.04
73453;BME280;61687;56.232;43.854;2023-05-20T04:55:49;101371.59;;;13.12;73.92
73453;BME280;61687;56.232;43.854;2023-05-20T04:58:19;101371.44;;;13.05;74.22
73453;BME280;61687;56.232;43.854;2023-05-20T05:00:50;101364.72;;;13.22;73.43
73453;BME280;61687;56.232;43.854;2023-05-20T05:03:17;101377.63;;;13.17;74.00
73453;BME280;61687;56.232;43.854;2023-05-20T05:05:44;101371.91;;;12.91;74.58
73453;BME280;61687;56.232;43.854;2023-05-20T05:08:10;101369.88;;;12.87;74.89
73453;BME280;61687;56.232;43.854;2023-05-20T05:10:42;101374.56;;;12.87;75.14
73453;BME280;61687;56.232;43.854;2023-05-20T05:13:09;101378.00;;;13.00;74.67
73453;BME280;61687;56.232;43.854;2023-05-20T05:15:36;101376.13;;;13.04;74.68
73453;BME280;61687;56.232;43.854;2023-05-20T05:18:02;101382.84;;;13.23;74.36
73453;BME280;61687;56.232;43.854;2023-05-20T05:20:29;101376.97;;;12.88;73.69
73453;BME280;61687;56.232;43.854;2023-05-20T05:22:55;101377.31;;;12.87;74.17
73453;BME280;61687;56.232;43.854;2023-05-20T05:25:21;101380.75;;;13.00;74.23
73453;BME280;61687;56.232;43.854;2023-05-20T05:27:47;101378.28;;;12.95;74.11
73453;BME280;61687;56.232;43.854;2023-05-20T05:30:16;101380.66;;;13.12;74.12
73453;BME280;61687;56.232;43.854;2023-05-20T05:32:43;101374.25;;;13.24;74.07
73453;BME280;61687;56.232;43.854;2023-05-20T05:35:09;101382.66;;;13.48;73.71
73453;BME280;61687;56.232;43.854;2023-05-20T05:37:36;101382.06;;;13.78;72.65
73453;BME280;61687;56.232;43.854;2023-05-20T05:40:05;101385.97;;;13.57;72.01
73453;BME280;61687;56.232;43.854;2023-05-20T05:42:32;101378.88;;;13.56;71.70
73453;BME280;61687;56.232;43.854;2023-05-20T05:45:00;101384.38;;;13.56;71.97
73453;BME280;61687;56.232;43.854;2023-05-20T05:47:26;101376.84;;;13.72;71.71
73453;BME280;61687;56.232;43.854;2023-05-20T05:49:57;101381.47;;;13.88;71.12
73453;BME280;61687;56.232;43.854;2023-05-20T05:52:25;101378.47;;;14.16;71.28
73453;BME280;61687;56.232;43.854;2023-05-20T05:54:53;101379.84;;;14.50;70.22
73453;BME280;61687;56.232;43.854;2023-05-20T05:57:19;101385.50;;;14.84;69.41
73453;BME280;61687;56.232;43.854;2023-05-20T05:59:46;101387.88;;;15.09;68.16
73453;BME280;61687;56.232;43.854;2023-05-20T06:02:13;101388.72;;;15.13;67.33
73453;BME280;61687;56.232;43.854;2023-05-20T06:04:40;101390.94;;;15.03;66.80
73453;BME280;61687;56.232;43.854;2023-05-20T06:07:06;101392.84;;;14.99;67.10
73453;BME280;61687;56.232;43.854;2023-05-20T06:09:32;101390.16;;;15.03;67.16
73453;BME280;61687;56.232;43.854;2023-05-20T06:11:59;101392.16;;;15.33;66.78
73453;BME280;61687;56.232;43.854;2023-05-20T06:14:25;101383.16;;;15.40;66.10
73453;BME280;61687;56.232;43.854;2023-05-20T06:16:51;101386.44;;;15.49;66.43
73453;BME280;61687;56.232;43.854;2023-05-20T06:19:17;101385.19;;;15.43;65.77
73453;BME280;61687;56.232;43.854;2023-05-20T06:21:44;101386.81;;;15.48;66.33
73453;BME280;61687;56.232;43.854;2023-05-20T06:24:10;101389.88;;;15.39;66.51
73453;BME280;61687;56.232;43.854;2023-05-20T06:26:37;101383.47;;;15.04;66.51
73453;BME280;61687;56.232;43.854;2023-05-20T06:29:03;101387.63;;;14.67;67.61
73453;BME280;61687;56.232;43.854;2023-05-20T06:31:30;101380.94;;;14.68;67.86
73453;BME280;61687;56.232;43.854;2023-05-20T06:33:56;101386.09;;;14.47;68.28
73453;BME280;61687;56.232;43.854;2023-05-20T06:36:22;101389.81;;;14.35;68.58
73453;BME280;61687;56.232;43.854;2023-05-20T06:38:48;101387.78;;;14.31;69.21
73453;BME280;61687;56.232;43.854;2023-05-20T06:41:15;101385.41;;;14.30;69.03
73453;BME280;61687;56.232;43.854;2023-05-20T06:43:41;101380.31;;;14.32;68.98
73453;BME280;61687;56.232;43.854;2023-05-20T06:46:26;101386.50;;;14.49;68.90
73453;BME280;61687;56.232;43.854;2023-05-20T06:48:55;101395.63;;;14.29;69.09
73453;BME280;61687;56.232;43.854;2023-05-20T06:51:21;101381.47;;;14.31;69.23
73453;BME280;61687;56.232;43.854;2023-05-20T06:53:49;101386.19;;;14.54;68.66
73453;BME280;61687;56.232;43.854;2023-05-20T06:56:15;101380.50;;;14.43;68.35
73453;BME280;61687;56.232;43.854;2023-05-20T06:58:41;101387.59;;;14.44;68.19
73453;BME280;61687;56.232;43.854;2023-05-20T07:01:07;101386.81;;;14.20;68.04
73453;BME280;61687;56.232;43.854;2023-05-20T07:03:33;101382.88;;;14.21;68.43
73453;BME280;61687;56.232;43.854;2023-05-20T07:05:59;101391.88;;;14.18;68.88
73453;BME280;61687;56.232;43.854;2023-05-20T07:08:25;101394.44;;;14.30;69.24
73453;BME280;61687;56.232;43.854;2023-05-20T07:10:54;101397.31;;;14.57;68.83
73453;BME280;61687;56.232;43.854;2023-05-20T07:13:21;101391.75;;;14.77;68.00
73453;BME280;61687;56.232;43.854;2023-05-20T07:15:50;101403.50;;;14.74;67.93
73453;BME280;61687;56.232;43.854;2023-05-20T07:18:17;101401.94;;;15.00;67.50
73453;BME280;61687;56.232;43.854;2023-05-20T07:20:48;101397.53;;;15.22;66.66
73453;BME280;61687;56.232;43.854;2023-05-20T07:23:27;101394.34;;;15.20;66.80
73453;BME280;61687;56.232;43.854;2023-05-20T07:25:55;101398.91;;;15.36;66.06
73453;BME280;61687;56.232;43.854;2023-05-20T07:28:21;101397.47;;;14.92;66.44
73453;BME280;61687;56.232;43.854;2023-05-20T07:30:47;101403.00;;;14.92;67.48
73453;BME280;61687;56.232;43.854;2023-05-20T07:33:26;101409.97;;;15.09;67.68
73453;BME280;61687;56.232;43.854;2023-05-20T07:35:53;101404.38;;;15.05;66.80
73453;BME280;61687;56.232;43.854;2023-05-20T07:38:20;101403.13;;;14.76;67.47
73453;BME280;61687;56.232;43.854;2023-05-20T07:40:50;101404.13;;;14.87;67.35
73453;BME280;61687;56.232;43.854;2023-05-20T07:43:16;101404.19;;;15.18;67.15
73453;BME280;61687;56.232;43.854;2023-05-20T07:45:42;101411.53;;;15.37;66.15
73453;BME280;61687;56.232;43.854;2023-05-20T07:48:09;101410.44;;;15.45;65.91
73453;BME280;61687;56.232;43.854;2023-05-20T07:50:38;101410.00;;;15.39;65.74
73453;BME280;61687;56.232;43.854;2023-05-20T07:53:05;101411.16;;;15.38;65.15
73453;BME280;61687;56.232;43.854;2023-05-20T07:55:35;101417.69;;;15.26;65.27
73453;BME280;61687;56.232;43.854;2023-05-20T07:58:02;101417.19;;;15.17;65.49
73453;BME280;61687;56.232;43.854;2023-05-20T08:00:30;101410.97;;;15.24;65.86
73453;BME280;61687;56.232;43.854;2023-05-20T08:03:01;101417.13;;;15.13;65.77
73453;BME280;61687;56.232;43.854;2023-05-20T08:05:36;101427.53;;;15.24;65.93
73453;BME280;61687;56.232;43.854;2023-05-20T08:08:03;101425.84;;;15.46;65.43
73453;BME280;61687;56.232;43.854;2023-05-20T08:10:38;101419.63;;;15.53;65.24
73453;BME280;61687;56.232;43.854;2023-05-20T08:13:04;101421.56;;;15.49;65.22
73453;BME280;61687;56.232;43.854;2023-05-20T08:15:30;101427.63;;;15.31;65.66
73453;BME280;61687;56.232;43.854;2023-05-20T08:17:56;101422.00;;;14.97;66.00
73453;BME280;61687;56.232;43.854;2023-05-20T08:20:22;101430.72;;;14.99;65.92
73453;BME280;61687;56.232;43.854;2023-05-20T08:22:51;101429.56;;;15.00;65.70
73453;BME280;61687;56.232;43.854;2023-05-20T08:25:17;101425.19;;;14.99;65.57
73453;BME280;61687;56.232;43.854;2023-05-20T08:27:45;101429.47;;;15.20;65.56
73453;BME280;61687;56.232;43.854;2023-05-20T08:30:11;101428.59;;;15.15;65.07
73453;BME280;61687;56.232;43.854;2023-05-20T08:32:38;101423.63;;;15.01;65.42
73453;BME280;61687;56.232;43.854;2023-05-20T08:35:05;101433.78;;;14.94;65.55
73453;BME280;61687;56.232;43.854;2023-05-20T08:37:32;101431.78;;;15.18;65.27
73453;BME280;61687;56.232;43.854;2023-05-20T08:39:58;101432.50;;;15.14;65.01
73453;BME280;61687;56.232;43.854;2023-05-20T08:42:24;101429.22;;;15.32;64.06
73453;BME280;61687;56.232;43.854;2023-05-20T08:44:54;101435.53;;;15.59;63.53
73453;BME280;61687;56.232;43.854;2023-05-20T08:47:25;101430.06;;;15.67;62.73
73453;BME280;61687;56.232;43.854;2023-05-20T08:49:51;101426.63;;;15.73;62.64
73453;BME280;61687;56.232;43.854;2023-05-20T08:52:20;101427.88;;;15.80;63.24
73453;BME280;61687;56.232;43.854;2023-05-20T08:54:48;101431.44;;;15.80;63.25
73453;BME280;61687;56.232;43.854;2023-05-20T08:57:14;101437.66;;;15.73;64.00
73453;BME280;61687;56.232;43.854;2023-05-20T08:59:44;101440.25;;;15.90;63.81
73453;BME280;61687;56.232;43.854;2023-05-20T09:02:11;101444.50;;;16.14;63.23
73453;BME280;61687;56.232;43.854;2023-05-20T09:04:38;101439.56;;;15.96;63.62
73453;BME280;61687;56.232;43.854;2023-05-20T09:07:04;101436.84;;;16.00;63.68
73453;BME280;61687;56.232;43.854;2023-05-20T09:09:34;101437.53;;;16.27;63.99
73453;BME280;61687;56.232;43.854;2023-05-20T09:12:01;101439.41;;;16.57;62.81
73453;BME280;61687;56.232;43.854;2023-05-20T09:14:29;101439.63;;;16.86;61.84
73453;BME280;61687;56.232;43.854;2023-05-20T09:16:55;101444.53;;;17.00;60.68
73453;BME280;61687;56.232;43.854;2023-05-20T09:19:22;101441.16;;;16.77;60.32
73453;BME280;61687;56.232;43.854;2023-05-20T09:21:52;101439.53;;;16.72;60.00
73453;BME280;61687;56.232;43.854;2023-05-20T09:24:22;101449.50;;;16.39;60.46
73453;BME280;61687;56.232;43.854;2023-05-20T09:26:48;101445.13;;;16.34;60.81
73453;BME280;61687;56.232;43.854;2023-05-20T09:29:14;101445.19;;;16.41;60.40
73453;BME280;61687;56.232;43.854;2023-05-20T09:31:40;101445.28;;;16.52;59.85
73453;BME280;61687;56.232;43.854;2023-05-20T09:34:06;101450.53;;;16.65;59.33
73453;BME280;61687;56.232;43.854;2023-05-20T09:36:34;101445.94;;;16.83;59.28
73453;BME280;61687;56.232;43.854;2023-05-20T09:39:02;101446.63;;;16.69;59.26
73453;BME280;61687;56.232;43.854;2023-05-20T09:41:33;101447.84;;;16.72;58.95
73453;BME280;61687;56.232;43.854;2023-05-20T09:44:03;101444.06;;;16.95;58.97
73453;BME280;61687;56.232;43.854;2023-05-20T09:46:32;101456.44;;;17.08;58.67
73453;BME280;61687;56.232;43.854;2023-05-20T09:48:59;101447.19;;;16.90;58.52
73453;BME280;61687;56.232;43.854;2023-05-20T09:51:27;101452.38;;;16.95;58.65
73453;BME280;61687;56.232;43.854;2023-05-20T09:53:54;101454.31;;;16.91;57.69
73453;BME280;61687;56.232;43.854;2023-05-20T09:56:22;101459.00;;;16.83;58.00
73453;BME280;61687;56.232;43.854;2023-05-20T09:58:52;101457.50;;;16.93;58.45
73453;BME280;61687;56.232;43.854;2023-05-20T10:01:23;101459.19;;;17.05;58.35
73453;BME280;61687;56.232;43.854;2023-05-20T10:03:51;101451.94;;;16.89;58.18
73453;BME280;61687;56.232;43.854;2023-05-20T10:09:27;101455.50;;;16.93;58.15
73453;BME280;61687;56.232;43.854;2023-05-20T10:12:28;101457.97;;;16.98;57.64
73453;BME280;61687;56.232;43.854;2023-05-20T10:15:09;101455.50;;;16.93;57.31
73453;BME280;61687;56.232;43.854;2023-05-20T10:20:29;101457.09;;;16.94;58.09
73453;BME280;61687;56.232;43.854;2023-05-20T10:22:55;101466.00;;;17.14;57.53
73453;BME280;61687;56.232;43.854;2023-05-20T10:25:26;101466.88;;;17.29;57.64
73453;BME280;61687;56.232;43.854;2023-05-20T10:28:04;101463.00;;;17.41;58.37
73453;BME280;61687;56.232;43.854;2023-05-20T10:30:32;101471.72;;;17.43;57.20
73453;BME280;61687;56.232;43.854;2023-05-20T10:33:03;101474.47;;;17.40;56.83
73453;BME280;61687;56.232;43.854;2023-05-20T10:35:30;101476.50;;;17.43;56.38
73453;BME280;61687;56.232;43.854;2023-05-20T10:38:08;101477.75;;;17.53;57.66
73453;BME280;61687;56.232;43.854;2023-05-20T10:40:35;101484.09;;;17.60;57.47
73453;BME280;61687;56.232;43.854;2023-05-20T10:43:14;101480.16;;;17.65;57.38
73453;BME280;61687;56.232;43.854;2023-05-20T10:45:52;101484.56;;;17.70;57.97
73453;BME280;61687;56.232;43.854;2023-05-20T10:48:31;101482.19;;;17.72;57.53
73453;BME280;61687;56.232;43.854;2023-05-20T10:51:03;101483.63;;;17.48;56.85
73453;BME280;61687;56.232;43.854;2023-05-20T10:53:40;101484.31;;;17.34;57.93
73453;BME280;61687;56.232;43.854;2023-05-20T10:56:17;101478.38;;;17.31;58.90
73453;BME280;61687;56.232;43.854;2023-05-20T10:58:43;101489.88;;;17.34;59.33
73453;BME280;61687;56.232;43.854;2023-05-20T11:01:11;101481.94;;;17.28;59.55
73453;BME280;61687;56.232;43.854;2023-05-20T11:03:45;101480.63;;;17.11;59.39
73453;BME280;61687;56.232;43.854;2023-05-20T11:06:18;101482.41;;;16.93;59.66
73453;BME280;61687;56.232;43.854;2023-05-20T11:08:45;101495.72;;;16.76;60.01
73453;BME280;61687;56.232;43.854;2023-05-20T11:11:14;101489.34;;;16.72;60.47
73453;BME280;61687;56.232;43.854;2023-05-20T11:13:41;101490.94;;;16.73;61.31
73453;BME280;61687;56.232;43.854;2023-05-20T11:16:09;101494.94;;;16.79;61.97
73453;BME280;61687;56.232;43.854;2023-05-20T11:18:35;101491.63;;;16.63;60.76
73453;BME280;61687;56.232;43.854;2023-05-20T11:21:01;101501.91;;;16.62;61.50
73453;BME280;61687;56.232;43.854;2023-05-20T11:23:28;101493.97;;;16.60;62.14
73453;BME280;61687;56.232;43.854;2023-05-20T11:25:55;101495.56;;;16.58;62.06
73453;BME280;61687;56.232;43.854;2023-05-20T11:28:22;101493.91;;;16.53;62.24
73453;BME280;61687;56.232;43.854;2023-05-20T11:30:50;101489.16;;;16.50;62.27
73453;BME280;61687;56.232;43.854;2023-05-20T11:33:17;101493.09;;;16.49;62.36
73453;BME280;61687;56.232;43.854;2023-05-20T11:35:48;101501.41;;;16.49;62.62
73453;BME280;61687;56.232;43.854;2023-05-20T11:38:14;101498.63;;;16.49;62.50
73453;BME280;61687;56.232;43.854;2023-05-20T11:40:59;101494.63;;;16.47;63.02
73453;BME280;61687;56.232;43.854;2023-05-20T11:43:25;101495.84;;;16.49;63.66
73453;BME280;61687;56.232;43.854;2023-05-20T11:45:55;101507.69;;;16.46;63.78
73453;BME280;61687;56.232;43.854;2023-05-20T11:48:24;101499.38;;;16.46;64.17
73453;BME280;61687;56.232;43.854;2023-05-20T11:50:52;101503.75;;;16.47;64.03
73453;BME280;61687;56.232;43.854;2023-05-20T11:53:20;101502.94;;;16.47;63.80
73453;BME280;61687;56.232;43.854;2023-05-20T11:55:52;101510.00;;;16.44;63.79
73453;BME280;61687;56.232;43.854;2023-05-20T11:58:21;101502.47;;;16.41;63.79
73453;BME280;61687;56.232;43.854;2023-05-20T12:00:47;101500.06;;;16.36;63.59
73453;BME280;61687;56.232;43.854;2023-05-20T12:03:14;101499.22;;;16.31;63.82
73453;BME280;61687;56.232;43.854;2023-05-20T12:05:41;101504.41;;;16.37;64.02
73453;BME280;61687;56.232;43.854;2023-05-20T12:08:07;101502.09;;;16.08;64.28
73453;BME280;61687;56.232;43.854;2023-05-20T12:10:33;101511.63;;;16.11;64.62
73453;BME280;61687;56.232;43.854;2023-05-20T12:12:59;101516.03;;;16.15;64.27
73453;BME280;61687;56.232;43.854;2023-05-20T12:15:26;101522.75;;;16.18;64.06
73453;BME280;61687;56.232;43.854;2023-05-20T12:17:52;101514.38;;;16.11;63.76
73453;BME280;61687;56.232;43.854;2023-05-20T12:20:21;101511.50;;;16.00;63.90
73453;BME280;61687;56.232;43.854;2023-05-20T12:22:47;101519.06;;;15.80;64.58
73453;BME280;61687;56.232;43.854;2023-05-20T12:25:18;101513.25;;;15.85;64.81
73453;BME280;61687;56.232;43.854;2023-05-20T12:27:46;101521.22;;;15.90;64.98
73453;BME280;61687;56.232;43.854;2023-05-20T12:30:20;101521.38;;;16.01;65.00
73453;BME280;61687;56.232;43.854;2023-05-20T12:32:48;101515.22;;;16.15;64.80
73453;BME280;61687;56.232;43.854;2023-05-20T12:35:23;101518.41;;;16.17;64.63
73453;BME280;61687;56.232;43.854;2023-05-20T12:37:49;101516.44;;;16.17;64.62
73453;BME280;61687;56.232;43.854;2023-05-20T12:40:15;101525.19;;;16.23;64.87
73453;BME280;61687;56.232;43.854;2023-05-20T12:42:42;101522.47;;;16.27;65.04
73453;BME280;61687;56.232;43.854;2023-05-20T12:45:09;101519.34;;;16.28;65.08
73453;BME280;61687;56.232;43.854;2023-05-20T12:47:35;101522.13;;;16.32;65.27
73453;BME280;61687;56.232;43.854;2023-05-20T12:50:02;101526.88;;;16.31;65.27
73453;BME280;61687;56.232;43.854;2023-05-20T12:52:33;101523.53;;;16.15;65.18